Terminal Aerodrome Forecast
Issued by NWS Omaha/Valley, NE

Home | Current Version | Previous Version | Text Only | Print | Product List | Glossary On
Versions: 1 2 3 4 5 6 7 8 9 10 11 12 13 14 15 16 17 18 19 20 21 22 23 24
000
FTUS43 KOAX 291724
TAFLNK
TAF
KLNK 291724Z 2918/3018 17006KT P6SM SCT100 BKN250
      TEMPO 2922/3001 P6SM -TSRA BKN040CB OVC100
     FM300200 34016G23KT P6SM OVC050
     FM301200 34019G26KT P6SM BKN025 OVC050=

USA.gov is the U.S. government's official web portal to all federal, state and local government web resources and services.